»·PEaware :: N447AB KVUO-KTMK

N447AB :: KVUO-KTMK

FLIGHT INFORMATION

Flight Status: Arrived
Operator: Privately registered:
United States
More flights under this callsign
Pilot: Gabor H. (24209)
Aircraft: Unknown
(DA50)
More flights by this aircraft type
Origin: KVUO Pearson
United States
Destination: KTMK Tillamook
United States
More flights between these airports :: More routes between these airports
Route: BTG V112 PITER JEQEF
File this flight plan on PilotEdge
Remarks:
Altitude:
(Current/Filed)
6,000ft
Speed:
(Current/Filed)
160kts
Departed: 16-Oct-23 07:13 AM
Arrived: 16-Oct-23 07:53 AM
Distance/Time
Traveled:
50nm/0:40
Distance/Time
To Go:
Arrived

Flight Plot

Page will automatically refresh every two minutes.

Flight plan parsing failed; only flown route is shown


Map Options




Map Legend


Flown Route
Filed Route
Departure Airport
Arrival Airport
Navaid (VOR, NDB)
Fix

Horizontal Profiles

Position Reports

Time Latitude Longitude Heading Altitude Ground
Speed
16-Oct-23 06:48 45.622608 -122.654357 184 30ft 0kts
16-Oct-23 06:49 45.622608 -122.654357 184 30ft 0kts
16-Oct-23 06:50 45.622608 -122.654357 184 30ft 0kts
16-Oct-23 06:51 45.622608 -122.654357 184 30ft 0kts
16-Oct-23 06:52 45.622608 -122.654357 184 30ft 0kts
16-Oct-23 06:53 45.622608 -122.654357 184 30ft 0kts
16-Oct-23 06:54 45.622608 -122.654357 184 30ft 0kts
16-Oct-23 06:55 45.622608 -122.654357 184 30ft 0kts
16-Oct-23 06:56 45.622608 -122.654357 184 30ft 0kts
16-Oct-23 07:01 45.622608 -122.654357 184 30ft 0kts
16-Oct-23 07:02 45.622608 -122.654357 184 30ft 0kts
16-Oct-23 07:03 45.622566 -122.654355 177 29ft 1kts
16-Oct-23 07:04 45.622187 -122.654628 200 28ft 6kts
16-Oct-23 07:05 45.621366 -122.656524 275 27ft 12kts
16-Oct-23 07:06 45.621170 -122.658000 215 27ft 0kts
16-Oct-23 07:07 45.621170 -122.657999 215 27ft 0kts
16-Oct-23 07:08 45.621170 -122.657999 215 27ft 0kts
16-Oct-23 07:09 45.621329 -122.660455 274 30ft 8kts
16-Oct-23 07:10 45.621479 -122.662454 263 33ft 0kts
16-Oct-23 07:11 45.621479 -122.662454 263 33ft 0kts
16-Oct-23 07:12 45.620397 -122.655877 95 30ft 77kts
16-Oct-23 07:13 45.618758 -122.622289 56 1041ft 79kts
16-Oct-23 07:14 45.640320 -122.614197 10 2007ft 86kts
16-Oct-23 07:15 45.664962 -122.608950 7 2969ft 89kts
16-Oct-23 07:16 45.689862 -122.603693 5 3896ft 93kts
16-Oct-23 07:17 45.715987 -122.598219 3 4812ft 98kts
16-Oct-23 07:18 45.742816 -122.595787 331 5749ft 92kts
16-Oct-23 07:19 45.760606 -122.626484 280 6039ft 136kts
16-Oct-23 07:20 45.777822 -122.682474 285 6014ft 165kts
16-Oct-23 07:21 45.797259 -122.741961 284 6004ft 161kts
16-Oct-23 07:22 45.815849 -122.799466 285 6021ft 158kts
16-Oct-23 07:23 45.834551 -122.856431 285 6017ft 157kts
16-Oct-23 07:24 45.853212 -122.913347 285 6013ft 159kts
16-Oct-23 07:25 45.871544 -122.970180 285 6021ft 155kts
16-Oct-23 07:26 45.889893 -123.026835 284 6016ft 158kts
16-Oct-23 07:27 45.884850 -123.082505 241 6016ft 140kts
16-Oct-23 07:28 45.869660 -123.133155 241 6021ft 137kts
16-Oct-23 07:29 45.851864 -123.181172 243 6024ft 140kts
16-Oct-23 07:30 45.837043 -123.232023 241 6038ft 137kts
16-Oct-23 07:31 45.821806 -123.282048 241 6028ft 135kts
16-Oct-23 07:32 45.806755 -123.331760 241 6030ft 137kts
16-Oct-23 07:33 45.791565 -123.381838 241 6025ft 135kts
16-Oct-23 07:34 45.776619 -123.431094 241 6025ft 135kts
16-Oct-23 07:35 45.761424 -123.480590 241 6035ft 134kts
16-Oct-23 07:36 45.746608 -123.529157 240 6028ft 132kts
16-Oct-23 07:37 45.731892 -123.577694 241 6049ft 133kts
16-Oct-23 07:38 45.716913 -123.626199 240 6032ft 132kts
16-Oct-23 07:39 45.701926 -123.674826 241 6025ft 133kts
16-Oct-23 07:40 45.686877 -123.723631 239 5990ft 135kts
16-Oct-23 07:41 45.672098 -123.771865 239 6002ft 132kts
16-Oct-23 07:42 45.657127 -123.819850 238 5514ft 130kts
16-Oct-23 07:43 45.643070 -123.864236 237 5072ft 118kts
16-Oct-23 07:44 45.629337 -123.907606 237 4657ft 120kts
16-Oct-23 07:45 45.606431 -123.931210 178 4331ft 123kts
16-Oct-23 07:46 45.572109 -123.913600 165 3744ft 134kts
16-Oct-23 07:47 45.540497 -123.893311 165 2956ft 119kts
16-Oct-23 07:48 45.511261 -123.874658 164 2282ft 115kts
16-Oct-23 07:49 45.482755 -123.856367 163 1554ft 106kts
16-Oct-23 07:51 45.457087 -123.839935 160 918ft 92kts
16-Oct-23 07:52 45.435008 -123.825846 158 334ft 83kts
16-Oct-23 07:53 45.419834 -123.816391 245 29ft 6kts
16-Oct-23 07:54 45.418591 -123.817665 196 28ft 11kts
16-Oct-23 07:55 45.418445 -123.818676 353 26ft 0kts
16-Oct-23 07:56 45.418445 -123.818676 353 26ft 0kts

Navigation Log

Ident Type
Flight plan parsing failed, navigation log unavailable